createdAt,value
2023-05-18T00:00:25.273Z,3.72
2023-05-18T00:02:52.335Z,4.03
2023-05-18T00:05:19.690Z,4.28
2023-05-18T00:07:47.822Z,3.67
2023-05-18T00:10:15.562Z,4.07
2023-05-18T00:12:42.488Z,3.58
2023-05-18T00:15:10.543Z,4.05
2023-05-18T00:17:37.627Z,3.50
2023-05-18T00:20:06.916Z,3.65
2023-05-18T00:22:34.015Z,3.85
2023-05-18T00:25:01.351Z,4.28
2023-05-18T00:27:29.293Z,3.97
2023-05-18T00:29:56.264Z,3.45
2023-05-18T00:32:23.291Z,3.30
2023-05-18T00:34:51.822Z,3.78
2023-05-18T00:37:20.942Z,4.53
2023-05-18T00:39:47.982Z,3.83
2023-05-18T00:42:14.949Z,4.32
2023-05-18T00:44:42.114Z,3.83
2023-05-18T00:47:09.568Z,3.70
2023-05-18T00:49:36.705Z,3.80
2023-05-18T00:52:05.285Z,3.92
2023-05-18T00:54:33.433Z,3.47
2023-05-18T00:57:04.016Z,3.75
2023-05-18T00:59:32.819Z,3.67
2023-05-18T01:02:05.377Z,3.75
2023-05-18T01:04:32.519Z,4.07
2023-05-18T01:07:06.815Z,3.85
2023-05-18T01:09:34.814Z,3.80
2023-05-18T01:12:43.057Z,4.20
2023-05-18T01:15:19.354Z,3.80
2023-05-18T01:18:04.986Z,3.58
2023-05-18T01:21:13.583Z,4.15
2023-05-18T01:24:31.416Z,4.30
2023-05-18T01:27:00.993Z,4.13
2023-05-18T01:29:29.265Z,4.43
2023-05-18T01:31:57.007Z,4.90
2023-05-18T01:34:24.376Z,4.40
2023-05-18T01:36:51.650Z,3.95
2023-05-18T01:39:19.327Z,3.80
2023-05-18T01:41:55.355Z,4.40
2023-05-18T01:44:24.788Z,4.22
2023-05-18T01:47:15.397Z,4.30
2023-05-18T01:49:51.963Z,4.20
2023-05-18T01:52:29.467Z,4.60
2023-05-18T01:55:03.581Z,4.35
2023-05-18T01:57:32.948Z,4.85
2023-05-18T02:00:04.159Z,4.65
2023-05-18T02:02:43.305Z,4.75
2023-05-18T02:05:13.865Z,4.28
2023-05-18T02:07:46.655Z,4.28
2023-05-18T02:10:15.448Z,4.22
2023-05-18T02:12:44.628Z,4.40
2023-05-18T02:15:11.909Z,4.22
2023-05-18T02:17:42.515Z,4.68
2023-05-18T02:20:10.204Z,4.90
2023-05-18T02:22:37.457Z,4.90
2023-05-18T02:25:07.639Z,4.80
2023-05-18T02:27:36.706Z,5.30
2023-05-18T02:30:05.780Z,4.53
2023-05-18T02:32:38.782Z,4.78
2023-05-18T02:35:08.339Z,5.10
2023-05-18T02:37:39.925Z,4.93
2023-05-18T02:40:10.701Z,5.00
2023-05-18T02:42:37.677Z,4.88
2023-05-18T02:45:05.376Z,5.18
2023-05-18T02:47:34.668Z,4.88
2023-05-18T02:50:03.279Z,5.50
2023-05-18T02:52:35.576Z,4.53
2023-05-18T02:55:03.307Z,5.20
2023-05-18T02:57:49.148Z,5.20
2023-05-18T03:00:23.469Z,4.55
2023-05-18T03:02:51.086Z,5.10
2023-05-18T03:05:23.888Z,4.70
2023-05-18T03:07:53.411Z,4.93
2023-05-18T03:10:22.389Z,5.38
2023-05-18T03:12:49.540Z,8.60
2023-05-18T03:15:21.627Z,5.47
2023-05-18T03:17:51.831Z,4.95
2023-05-18T03:20:22.054Z,5.05
2023-05-18T03:22:50.272Z,5.20
2023-05-18T03:25:17.498Z,5.13
2023-05-18T03:27:45.035Z,5.13
